Time;durP1;ratioP1;P1;durP2;ratioP2;P2;SDS_P1;SDS_P2;PMS_P1;PMS_P2;Temp;Humidity;BMP_temperature;BMP_pressure;BME280_temperature;BME280_humidity;BME280_pressure;Samples;Min_cycle;Max_cycle;Signal;HPM_P1;HPM_P2
2022/10/30 00:00:01;;;;;;;;;;;;;;;21.34;56.10;101364.66;5133934;27;19939;-38
2022/10/30 00:02:26;;;;;;;;;;;;;;;21.34;56.01;101370.19;5137335;27;20287;-38
2022/10/30 00:04:52;;;;;;;;;;;;;;;21.33;56.24;101368.56;5135617;27;19984;-38
2022/10/30 00:07:18;;;;;;;;;;;;;;;21.34;56.17;101369.38;5135482;27;19931;-38
2022/10/30 00:09:43;;;;;;;;;;;;;;;21.34;56.18;101366.59;5140815;27;20251;-37
2022/10/30 00:12:09;;;;;;;;;;;;;;;21.33;56.08;101368.56;5142029;27;19976;-38
2022/10/30 00:14:34;;;;;;;;;;;;;;;21.34;56.09;101366.59;5139301;27;19927;-38
2022/10/30 00:17:00;;;;;;;;;;;;;;;21.34;56.11;101369.38;5140678;27;20204;-38
2022/10/30 00:19:25;;;;;;;;;;;;;;;21.33;56.14;101363.00;5141608;27;19931;-38
2022/10/30 00:21:51;;;;;;;;;;;;;;;21.33;56.18;101368.56;5143674;27;20282;-38
2022/10/30 00:24:16;;;;;;;;;;;;;;;21.33;56.10;101367.69;5138301;27;19927;-38
2022/10/30 00:26:42;;;;;;;;;;;;;;;21.34;56.16;101367.44;5143586;27;19923;-38
2022/10/30 00:29:08;;;;;;;;;;;;;;;21.34;56.11;101375.75;5146999;27;19923;-38
2022/10/30 00:31:33;;;;;;;;;;;;;;;21.33;56.26;101374.09;5140895;27;19930;-38
2022/10/30 00:33:59;;;;;;;;;;;;;;;21.34;56.33;101366.59;5142921;27;19927;-38
2022/10/30 00:36:24;;;;;;;;;;;;;;;21.34;56.17;101377.69;5139911;27;19923;-38
2022/10/30 00:38:50;;;;;;;;;;;;;;;21.33;56.09;101374.09;5139340;27;19992;-38
2022/10/30 00:41:18;;;;;;;;;;;;;;;21.34;56.02;101363.84;5141926;27;19934;-37
2022/10/30 00:43:44;;;;;;;;;;;;;;;21.34;56.20;101361.06;5123600;27;19968;-38
2022/10/30 00:46:29;;;;;;;;;;;;;;;21.33;56.07;101364.94;5140212;27;19923;-38
2022/10/30 00:48:56;;;;;;;;;;;;;;;21.34;56.22;101370.19;5126326;27;20057;-38
2022/10/30 00:51:21;;;;;;;;;;;;;;;21.34;55.97;101369.38;5140993;27;20013;-38
2022/10/30 00:53:47;;;;;;;;;;;;;;;21.34;56.09;101369.38;5142719;27;20018;-38
2022/10/30 00:56:12;;;;;;;;;;;;;;;21.33;56.18;101368.56;5138887;27;19934;-38
2022/10/30 00:58:39;;;;;;;;;;;;;;;21.34;56.17;101374.91;5139670;27;19923;-38
2022/10/30 01:01:05;;;;;;;;;;;;;;;21.33;56.06;101370.47;5137777;27;19946;-38
2022/10/30 01:03:31;;;;;;;;;;;;;;;21.34;56.08;101374.91;5141160;27;20282;-38
2022/10/30 01:05:57;;;;;;;;;;;;;;;21.35;56.13;101365.50;5137792;27;19931;-37
2022/10/30 01:08:23;;;;;;;;;;;;;;;21.34;56.14;101374.91;5140694;27;19967;-38
2022/10/30 01:10:49;;;;;;;;;;;;;;;21.33;56.20;101365.78;5122149;27;19942;-38
2022/10/30 01:13:14;;;;;;;;;;;;;;;21.34;56.06;101361.06;5140507;27;19923;-38
2022/10/30 01:15:41;;;;;;;;;;;;;;;21.33;56.16;101360.25;5138658;27;20379;-39
2022/10/30 01:18:25;;;;;;;;;;;;;;;21.35;56.02;101354.41;5141557;27;20370;-38
2022/10/30 01:21:11;;;;;;;;;;;;;;;21.34;56.15;101361.06;5140045;27;20395;-38
2022/10/30 01:23:43;;;;;;;;;;;;;;;21.34;56.14;101367.44;5126298;27;20021;-38
2022/10/30 01:26:26;;;;;;;;;;;;;;;21.34;56.10;101361.06;5137632;27;19959;-38
2022/10/30 01:31:35;;;;;;;;;;;;;;;21.34;56.06;101364.66;5172772;27;19925;-35
2022/10/30 01:34:17;;;;;;;;;;;;;;;21.34;56.07;101361.06;5172582;27;19958;-35
2022/10/30 01:36:47;;;;;;;;;;;;;;;21.34;56.14;101352.75;5155325;27;19991;-36
2022/10/30 01:39:13;;;;;;;;;;;;;;;21.35;56.08;101354.41;5175058;27;19981;-36
2022/10/30 01:41:39;;;;;;;;;;;;;;;21.34;56.16;101355.53;5174831;27;19969;-36
2022/10/30 01:44:06;;;;;;;;;;;;;;;21.34;56.14;101347.22;5166493;27;19928;-36
2022/10/30 01:46:51;;;;;;;;;;;;;;;21.33;56.06;101349.16;5166543;27;19969;-35
2022/10/30 01:49:21;;;;;;;;;;;;;;;21.34;56.22;101363.84;5150864;27;19930;-35
2022/10/30 01:52:12;;;;;;;;;;;;;;;21.33;56.07;101359.38;5166969;27;19923;-35
2022/10/30 01:54:40;;;;;;;;;;;;;;;21.33;56.02;101353.84;5154823;27;19937;-35
2022/10/30 01:57:14;;;;;;;;;;;;;;;21.34;55.92;101347.22;5152942;27;19966;-36
2022/10/30 01:59:46;;;;;;;;;;;;;;;21.33;56.13;101343.63;5165004;27;20391;-35
2022/10/30 02:02:11;;;;;;;;;;;;;;;21.34;56.09;101352.75;5150834;27;20056;-36
2022/10/30 02:04:37;;;;;;;;;;;;;;;21.34;56.08;101338.91;5170232;27;20053;-35
2022/10/30 02:07:03;;;;;;;;;;;;;;;21.34;56.05;101342.50;5172490;27;19923;-36
2022/10/30 02:09:28;;;;;;;;;;;;;;;21.35;56.10;101340.56;5171574;27;19923;-35
2022/10/30 02:11:54;;;;;;;;;;;;;;;21.33;56.10;101346.38;5170033;27;19935;-35
2022/10/30 02:14:22;;;;;;;;;;;;;;;21.33;56.20;101340.00;5164560;27;20359;-36
2022/10/30 02:16:48;;;;;;;;;;;;;;;21.33;56.11;101327.00;5138928;27;20019;-36
2022/10/30 02:19:14;;;;;;;;;;;;;;;21.34;56.24;101338.91;5150769;27;19924;-35
2022/10/30 02:21:39;;;;;;;;;;;;;;;21.34;56.11;101345.28;5150625;27;19924;-36
2022/10/30 02:24:05;;;;;;;;;;;;;;;21.34;56.37;101349.97;5159775;27;19927;-36
2022/10/30 02:26:30;;;;;;;;;;;;;;;21.33;56.15;101349.16;5155902;27;19930;-35
2022/10/30 02:28:56;;;;;;;;;;;;;;;21.33;56.43;101363.00;5152380;27;20313;-36
2022/10/30 02:31:22;;;;;;;;;;;;;;;21.33;56.09;101351.94;5152885;27;19927;-35
2022/10/30 02:33:47;;;;;;;;;;;;;;;21.34;56.09;101352.75;5152267;27;20300;-35
2022/10/30 02:36:14;;;;;;;;;;;;;;;21.33;56.09;101351.94;5154061;27;19923;-36
2022/10/30 02:38:40;;;;;;;;;;;;;;;21.34;56.11;101344.44;5151883;27;20022;-36
2022/10/30 02:41:05;;;;;;;;;;;;;;;21.34;56.06;101350.81;5155161;27;19931;-36
2022/10/30 02:43:31;;;;;;;;;;;;;;;21.33;56.13;101351.94;5141864;27;20275;-36
2022/10/30 02:45:56;;;;;;;;;;;;;;;21.33;56.08;101345.53;5137063;27;19923;-35
2022/10/30 02:48:22;;;;;;;;;;;;;;;21.34;56.10;101352.75;5135730;27;19932;-36
2022/10/30 02:50:47;;;;;;;;;;;;;;;21.34;56.09;101341.66;5143442;27;20297;-35
2022/10/30 02:53:13;;;;;;;;;;;;;;;21.34;56.07;101355.53;5143791;27;19923;-36
2022/10/30 02:55:39;;;;;;;;;;;;;;;21.34;56.10;101344.44;5139640;27;19924;-36
2022/10/30 02:58:04;;;;;;;;;;;;;;;21.34;56.05;101339.72;5141107;27;19935;-36
2022/10/30 03:00:30;;;;;;;;;;;;;;;21.33;56.13;101342.75;5132066;27;20091;-36
2022/10/30 03:02:55;;;;;;;;;;;;;;;21.34;56.15;101347.22;5138656;27;19927;-35
2022/10/30 03:05:21;;;;;;;;;;;;;;;21.34;56.01;101344.44;5141304;27;19934;-35
2022/10/30 03:07:47;;;;;;;;;;;;;;;21.33;56.05;101346.38;5139697;27;20344;-35
2022/10/30 03:10:13;;;;;;;;;;;;;;;21.34;56.06;101347.22;5140987;27;19962;-35
2022/10/30 03:12:39;;;;;;;;;;;;;;;21.33;56.03;101346.38;5141506;27;19946;-35
2022/10/30 03:15:04;;;;;;;;;;;;;;;21.33;56.16;101360.25;5121427;27;19934;-36
2022/10/30 03:17:30;;;;;;;;;;;;;;;21.34;56.24;101358.28;5140000;27;20287;-35
2022/10/30 03:19:56;;;;;;;;;;;;;;;21.34;56.06;101352.75;5142513;27;19958;-36
2022/10/30 03:22:21;;;;;;;;;;;;;;;21.32;56.10;101364.09;5119422;27;20360;-35
2022/10/30 03:24:47;;;;;;;;;;;;;;;21.33;56.17;101362.16;5143491;27;20030;-36
2022/10/30 03:27:12;;;;;;;;;;;;;;;21.33;56.17;101360.25;5137546;27;19934;-35
2022/10/30 03:29:38;;;;;;;;;;;;;;;21.33;56.14;101360.25;5143727;27;20320;-35
2022/10/30 03:32:07;;;;;;;;;;;;;;;21.33;56.07;101359.38;5141792;27;19923;-35
2022/10/30 03:34:32;;;;;;;;;;;;;;;21.34;56.01;101356.34;5120166;27;20379;-36
2022/10/30 03:36:58;;;;;;;;;;;;;;;21.34;56.05;101355.53;5139294;27;20176;-35
2022/10/30 03:39:23;;;;;;;;;;;;;;;21.33;56.10;101360.25;5138644;27;20001;-36
2022/10/30 03:41:49;;;;;;;;;;;;;;;21.33;56.08;101357.47;5138734;27;19930;-35
2022/10/30 03:44:14;;;;;;;;;;;;;;;21.34;56.09;101352.75;5141324;27;20264;-36
2022/10/30 03:46:40;;;;;;;;;;;;;;;21.34;56.22;101363.84;5139293;27;19930;-35
2022/10/30 03:49:05;;;;;;;;;;;;;;;21.33;56.20;101371.31;5140005;27;19922;-35
2022/10/30 03:51:31;;;;;;;;;;;;;;;21.34;56.20;101374.91;5136899;27;19958;-35
2022/10/30 03:53:57;;;;;;;;;;;;;;;21.34;56.15;101374.91;5135338;27;19923;-36
2022/10/30 03:56:22;;;;;;;;;;;;;;;21.34;56.10;101374.91;5135463;27;20275;-35
2022/10/30 03:58:48;;;;;;;;;;;;;;;21.33;56.14;101363.00;5138320;27;20035;-35
2022/10/30 04:01:14;;;;;;;;;;;;;;;21.33;56.14;101368.56;5137035;27;19923;-35
2022/10/30 04:03:39;;;;;;;;;;;;;;;21.34;56.07;101374.91;5120870;27;20001;-36
2022/10/30 04:06:06;;;;;;;;;;;;;;;21.34;56.04;101384.06;5137569;27;19931;-36
2022/10/30 04:08:32;;;;;;;;;;;;;;;21.33;56.06;101382.41;5139669;27;19993;-36
2022/10/30 04:10:57;;;;;;;;;;;;;;;21.34;56.10;101380.47;5143300;27;20325;-36
2022/10/30 04:13:23;;;;;;;;;;;;;;;21.34;56.04;101375.75;5121010;27;19930;-36
2022/10/30 04:15:49;;;;;;;;;;;;;;;21.34;56.19;101380.47;5138484;27;19931;-36
2022/10/30 04:18:22;;;;;;;;;;;;;;;21.34;56.15;101374.91;5140446;27;19938;-35
2022/10/30 04:20:48;;;;;;;;;;;;;;;21.33;56.03;101376.88;5119701;27;19931;-36
2022/10/30 04:23:16;;;;;;;;;;;;;;;21.34;56.09;101386.81;5136268;27;21338;-36
2022/10/30 04:25:41;;;;;;;;;;;;;;;21.34;56.17;101392.38;5119066;27;20010;-35
2022/10/30 04:28:07;;;;;;;;;;;;;;;21.33;56.06;101392.63;5121241;27;19931;-35
2022/10/30 04:30:34;;;;;;;;;;;;;;;21.34;56.07;101386.81;5141552;27;20542;-35
2022/10/30 04:32:59;;;;;;;;;;;;;;;21.34;56.06;101392.38;5136991;27;20018;-35
2022/10/30 04:35:27;;;;;;;;;;;;;;;21.34;56.00;101380.47;5143222;27;19985;-36
2022/10/30 04:37:56;;;;;;;;;;;;;;;21.33;56.11;101378.78;5139620;27;19983;-35
2022/10/30 04:40:23;;;;;;;;;;;;;;;21.33;56.16;101376.00;5118758;27;20022;-36
2022/10/30 04:42:48;;;;;;;;;;;;;;;21.34;56.39;101374.91;5119664;27;19982;-36
2022/10/30 04:45:14;;;;;;;;;;;;;;;21.33;56.03;101367.69;5138103;27;19992;-35
2022/10/30 04:47:40;;;;;;;;;;;;;;;21.35;56.11;101368.25;5142896;27;20375;-35
2022/10/30 04:50:06;;;;;;;;;;;;;;;21.34;56.15;101369.38;5118168;27;19931;-35
2022/10/30 04:52:31;;;;;;;;;;;;;;;21.34;56.17;101372.97;5139365;27;19924;-36
2022/10/30 04:54:57;;;;;;;;;;;;;;;21.34;55.98;101370.19;5133840;27;19931;-35
2022/10/30 04:57:23;;;;;;;;;;;;;;;21.33;56.11;101368.56;5140130;27;19934;-35
2022/10/30 04:59:48;;;;;;;;;;;;;;;21.33;55.94;101368.56;5134355;27;19924;-35
2022/10/30 05:02:14;;;;;;;;;;;;;;;21.33;56.01;101363.00;5136152;27;19984;-36
2022/10/30 05:04:39;;;;;;;;;;;;;;;21.34;56.00;101361.06;5134993;27;19930;-35
2022/10/30 05:07:06;;;;;;;;;;;;;;;21.34;56.09;101361.06;5118969;27;19927;-36
2022/10/30 05:09:31;;;;;;;;;;;;;;;21.33;56.02;101360.25;5121064;27;20370;-35
2022/10/30 05:11:57;;;;;;;;;;;;;;;21.33;56.07;101351.94;5118029;27;19969;-35
2022/10/30 05:14:27;;;;;;;;;;;;;;;21.33;56.17;101363.00;5116180;27;20399;-35
2022/10/30 05:16:53;;;;;;;;;;;;;;;21.34;56.01;101344.44;5140323;27;19923;-36
2022/10/30 05:19:19;;;;;;;;;;;;;;;21.34;56.04;101353.59;5134059;27;20383;-36
2022/10/30 05:21:44;;;;;;;;;;;;;;;21.33;56.08;101351.94;5135816;27;19923;-35
2022/10/30 05:24:10;;;;;;;;;;;;;;;21.34;56.18;101347.22;5137467;27;19923;-35
2022/10/30 05:26:35;;;;;;;;;;;;;;;21.33;56.02;101351.94;5138307;27;21131;-36
2022/10/30 05:29:01;;;;;;;;;;;;;;;21.33;56.06;101338.09;5136567;27;19924;-35
2022/10/30 05:31:26;;;;;;;;;;;;;;;21.33;55.94;101331.69;5117054;27;19923;-35
2022/10/30 05:33:52;;;;;;;;;;;;;;;21.33;56.03;101332.53;5136478;27;20170;-36
2022/10/30 05:36:18;;;;;;;;;;;;;;;21.34;56.07;101338.91;5138108;27;19924;-35
2022/10/30 05:38:45;;;;;;;;;;;;;;;21.33;56.10;101323.38;5136096;27;19927;-35
2022/10/30 05:41:11;;;;;;;;;;;;;;;21.33;56.06;101334.44;5140310;27;19970;-35
2022/10/30 05:43:36;;;;;;;;;;;;;;;21.33;56.10;101329.78;5137117;27;19927;-36
2022/10/30 05:46:02;;;;;;;;;;;;;;;21.33;56.06;101340.84;5132793;27;19931;-36
2022/10/30 05:48:27;;;;;;;;;;;;;;;21.34;56.13;101347.22;5136558;27;20294;-35
2022/10/30 05:50:54;;;;;;;;;;;;;;;21.34;56.08;101352.75;5139443;27;20165;-35
2022/10/30 05:53:19;;;;;;;;;;;;;;;21.34;56.05;101353.59;5140790;27;19955;-35
2022/10/30 05:55:45;;;;;;;;;;;;;;;21.33;56.01;101349.16;5137485;27;20222;-35
2022/10/30 05:58:11;;;;;;;;;;;;;;;21.33;55.98;101346.38;5136782;27;19924;-36
2022/10/30 06:00:38;;;;;;;;;;;;;;;21.34;56.08;101349.97;5139099;27;19950;-35
2022/10/30 06:03:04;;;;;;;;;;;;;;;21.34;56.08;101353.59;5137936;27;20018;-35
2022/10/30 06:05:30;;;;;;;;;;;;;;;21.34;55.94;101358.28;5135831;27;21105;-35
2022/10/30 06:07:56;;;;;;;;;;;;;;;21.34;56.09;101352.75;5119336;27;20436;-36
2022/10/30 06:10:22;;;;;;;;;;;;;;;21.35;56.04;101354.41;5144007;27;19923;-36
2022/10/30 06:12:52;;;;;;;;;;;;;;;21.34;56.06;101350.81;5120764;27;19970;-35
2022/10/30 06:15:17;;;;;;;;;;;;;;;21.34;56.05;101349.97;5118051;27;20455;-35
2022/10/30 06:17:43;;;;;;;;;;;;;;;21.33;56.00;101351.94;5139117;27;19930;-35
2022/10/30 06:20:09;;;;;;;;;;;;;;;21.35;55.76;101351.63;5145804;27;19930;-35
2022/10/30 06:22:34;;;;;;;;;;;;;;;21.35;56.09;101354.41;5140472;27;19973;-35
2022/10/30 06:25:00;;;;;;;;;;;;;;;21.34;56.01;101352.75;5139881;27;21415;-35
2022/10/30 06:27:25;;;;;;;;;;;;;;;21.34;56.01;101349.97;5145051;27;19927;-36
2022/10/30 06:29:53;;;;;;;;;;;;;;;21.34;56.06;101352.75;5146522;27;19923;-35
2022/10/30 06:32:19;;;;;;;;;;;;;;;21.34;56.01;101361.06;5142766;27;19970;-35
2022/10/30 06:34:45;;;;;;;;;;;;;;;21.33;56.02;101363.00;5137849;27;19932;-35
2022/10/30 06:37:10;;;;;;;;;;;;;;;21.33;56.07;101359.38;5136773;27;19931;-35
2022/10/30 06:39:36;;;;;;;;;;;;;;;21.33;56.08;101359.38;5141645;27;19953;-35
2022/10/30 06:42:01;;;;;;;;;;;;;;;21.33;56.06;101365.78;5141539;27;19931;-36
2022/10/30 06:44:27;;;;;;;;;;;;;;;21.33;56.01;101359.38;5121748;27;19950;-35
2022/10/30 06:46:53;;;;;;;;;;;;;;;21.34;56.01;101361.06;5141153;27;19942;-36
2022/10/30 06:49:18;;;;;;;;;;;;;;;21.34;56.16;101364.66;5148770;27;20382;-35
2022/10/30 06:51:44;;;;;;;;;;;;;;;21.33;55.96;101360.25;5145155;27;20478;-36
2022/10/30 06:54:09;;;;;;;;;;;;;;;21.34;56.02;101369.38;5143627;27;19931;-35
2022/10/30 06:56:35;;;;;;;;;;;;;;;21.34;56.05;101366.59;5139062;27;20118;-36
2022/10/30 06:59:01;;;;;;;;;;;;;;;21.34;55.98;101367.44;5138905;27;19923;-36
2022/10/30 07:01:26;;;;;;;;;;;;;;;21.33;56.01;101365.78;5140912;27;20118;-35
2022/10/30 07:03:52;;;;;;;;;;;;;;;21.34;56.22;101370.19;5142507;27;19932;-35
2022/10/30 07:06:17;;;;;;;;;;;;;;;21.32;56.00;101358.56;5143204;27;19967;-36
2022/10/30 07:08:43;;;;;;;;;;;;;;;21.33;56.07;101354.69;5137209;27;20286;-35
2022/10/30 07:11:08;;;;;;;;;;;;;;;21.34;55.90;101369.38;5140775;27;19923;-36
2022/10/30 07:13:34;;;;;;;;;;;;;;;21.33;55.99;101359.38;5138960;27;20362;-35
2022/10/30 07:16:00;;;;;;;;;;;;;;;21.32;56.08;101364.09;5138043;27;19930;-35
2022/10/30 07:18:25;;;;;;;;;;;;;;;21.33;55.97;101363.00;5141960;27;19931;-35
2022/10/30 07:20:55;;;;;;;;;;;;;;;21.34;56.15;101361.06;5120880;27;20391;-35
2022/10/30 07:23:20;;;;;;;;;;;;;;;21.32;55.99;101364.09;5121511;27;20287;-36
2022/10/30 07:25:46;;;;;;;;;;;;;;;21.32;55.95;101364.09;5129749;27;20375;-35
2022/10/30 07:28:11;;;;;;;;;;;;;;;21.33;56.02;101367.69;5143692;27;20288;-35
2022/10/30 07:30:37;;;;;;;;;;;;;;;21.33;56.02;101367.69;5135657;27;19935;-36
2022/10/30 07:33:03;;;;;;;;;;;;;;;21.32;55.99;101361.34;5137338;27;19931;-35
2022/10/30 07:35:29;;;;;;;;;;;;;;;21.33;55.96;101360.25;5137302;27;19958;-35
2022/10/30 07:37:55;;;;;;;;;;;;;;;21.33;55.98;101365.78;5118563;27;20019;-35
2022/10/30 07:40:21;;;;;;;;;;;;;;;21.32;56.01;101366.88;5120229;27;19963;-36
2022/10/30 07:42:46;;;;;;;;;;;;;;;21.33;56.00;101374.09;5120431;27;19927;-35
2022/10/30 07:45:12;;;;;;;;;;;;;;;21.33;55.96;101367.69;5138208;27;19927;-35
2022/10/30 07:47:39;;;;;;;;;;;;;;;21.33;55.92;101365.78;5140986;27;20012;-35
2022/10/30 07:50:04;;;;;;;;;;;;;;;21.33;56.00;101360.25;5138322;27;19993;-35
2022/10/30 07:52:31;;;;;;;;;;;;;;;21.33;56.01;101364.94;5119467;27;20333;-35
2022/10/30 07:54:56;;;;;;;;;;;;;;;21.33;56.04;101370.47;5136162;27;20129;-35
2022/10/30 07:57:22;;;;;;;;;;;;;;;21.33;56.03;101373.25;5139234;27;19923;-35
2022/10/30 07:59:47;;;;;;;;;;;;;;;21.32;56.00;101366.88;5140390;27;19924;-36
2022/10/30 08:02:18;;;;;;;;;;;;;;;21.34;56.02;101366.59;5139159;27;19931;-36
2022/10/30 08:04:43;;;;;;;;;;;;;;;21.33;56.03;101368.56;5136809;27;19976;-35
2022/10/30 08:07:09;;;;;;;;;;;;;;;21.32;55.95;101368.81;5138187;27;19930;-36
2022/10/30 08:09:35;;;;;;;;;;;;;;;21.33;56.00;101365.78;5136208;27;19928;-35
2022/10/30 08:12:00;;;;;;;;;;;;;;;21.34;55.93;101363.84;5138130;27;19923;-35
2022/10/30 08:14:26;;;;;;;;;;;;;;;21.33;56.03;101359.38;5140358;27;20255;-36
2022/10/30 08:16:51;;;;;;;;;;;;;;;21.33;56.02;101363.00;5135898;27;19931;-35
2022/10/30 08:19:17;;;;;;;;;;;;;;;21.33;55.98;101364.94;5140254;27;19923;-35
2022/10/30 08:21:42;;;;;;;;;;;;;;;21.33;56.02;101362.16;5144365;27;19927;-35
2022/10/30 08:24:08;;;;;;;;;;;;;;;21.33;56.01;101359.38;5135702;27;19968;-36
2022/10/30 08:26:34;;;;;;;;;;;;;;;21.33;56.01;101362.16;5136460;27;19931;-35
2022/10/30 08:29:00;;;;;;;;;;;;;;;21.33;56.02;101364.94;5143405;27;19995;-36
2022/10/30 08:31:25;;;;;;;;;;;;;;;21.33;55.95;101348.31;5117223;27;20030;-36
2022/10/30 08:33:51;;;;;;;;;;;;;;;21.34;56.02;101361.06;5140270;27;19938;-35
2022/10/30 08:36:16;;;;;;;;;;;;;;;21.33;56.07;101356.63;5141006;27;19934;-36
2022/10/30 08:38:42;;;;;;;;;;;;;;;21.33;55.98;101349.16;5139578;27;19953;-35
2022/10/30 08:41:07;;;;;;;;;;;;;;;21.32;55.96;101350.25;5137417;27;19923;-35
2022/10/30 08:43:33;;;;;;;;;;;;;;;21.32;55.94;101350.25;5137222;27;19977;-37
2022/10/30 08:45:58;;;;;;;;;;;;;;;21.33;56.03;101356.63;5137690;27;19931;-35
2022/10/30 08:48:24;;;;;;;;;;;;;;;21.33;56.06;101359.38;5116136;27;19929;-35
2022/10/30 08:50:49;;;;;;;;;;;;;;;21.32;56.07;101347.47;5137668;27;20294;-36
2022/10/30 08:53:15;;;;;;;;;;;;;;;21.33;55.93;101356.63;5139134;27;19930;-35
2022/10/30 08:55:41;;;;;;;;;;;;;;;21.33;55.95;101353.84;5138392;27;19937;-35
2022/10/30 08:58:06;;;;;;;;;;;;;;;21.32;55.95;101361.34;5118348;27;19927;-35
2022/10/30 09:00:33;;;;;;;;;;;;;;;21.33;55.93;101354.69;5136692;27;20074;-36
2022/10/30 09:02:58;;;;;;;;;;;;;;;21.33;55.91;101362.16;5139688;27;19997;-35
2022/10/30 09:05:24;;;;;;;;;;;;;;;21.33;55.86;101360.25;5136696;27;19973;-35
2022/10/30 09:07:54;;;;;;;;;;;;;;;21.32;56.07;101350.25;5137411;27;19969;-35
2022/10/30 09:10:19;;;;;;;;;;;;;;;21.33;55.94;101340.00;5117281;27;20576;-35
2022/10/30 09:12:45;;;;;;;;;;;;;;;21.33;56.00;101338.09;5142459;27;19944;-35
2022/10/30 09:15:10;;;;;;;;;;;;;;;21.33;56.00;101331.69;5137836;27;19923;-35
2022/10/30 09:17:36;;;;;;;;;;;;;;;21.33;55.83;101323.38;5140295;27;19927;-35
2022/10/30 09:20:02;;;;;;;;;;;;;;;21.32;55.98;101317.00;5139746;27;19946;-35
2022/10/30 09:22:27;;;;;;;;;;;;;;;21.33;55.98;101313.16;5140025;27;19923;-34
2022/10/30 09:24:53;;;;;;;;;;;;;;;21.33;55.89;101312.28;5121913;27;19923;-35
2022/10/30 09:27:18;;;;;;;;;;;;;;;21.33;55.93;101304.84;5136135;27;19923;-35
2022/10/30 09:29:44;;;;;;;;;;;;;;;21.33;56.01;101312.28;5139903;27;19932;-35
2022/10/30 09:32:10;;;;;;;;;;;;;;;21.33;55.91;101306.75;5141388;27;19930;-35
2022/10/30 09:34:37;;;;;;;;;;;;;;;21.32;55.85;101311.47;5139795;27;19923;-35
2022/10/30 09:37:02;;;;;;;;;;;;;;;21.33;55.92;101324.22;5136426;27;20053;-34
2022/10/30 09:39:29;;;;;;;;;;;;;;;21.34;56.00;101322.28;5135675;27;19934;-35
2022/10/30 09:42:01;;;;;;;;;;;;;;;21.33;55.95;101326.13;5136234;27;20035;-35
2022/10/30 09:44:32;;;;;;;;;;;;;;;21.33;55.95;101331.69;5136944;27;20201;-35
2022/10/30 09:47:02;;;;;;;;;;;;;;;21.33;55.98;101332.53;5136406;27;20168;-35
2022/10/30 09:49:46;;;;;;;;;;;;;;;21.33;55.92;101323.38;5140105;27;20010;-35
2022/10/30 09:52:17;;;;;;;;;;;;;;;21.34;56.00;101325.06;5139360;27;20411;-35
2022/10/30 09:54:45;;;;;;;;;;;;;;;21.33;55.87;101328.91;5143619;27;20014;-35
2022/10/30 09:57:13;;;;;;;;;;;;;;;21.34;55.85;101327.81;5123928;27;20009;-35
2022/10/30 09:59:43;;;;;;;;;;;;;;;21.32;55.91;101322.53;5140532;27;19959;-34
2022/10/30 10:02:14;;;;;;;;;;;;;;;21.33;55.96;101323.38;5144354;27;20022;-34
2022/10/30 10:04:42;;;;;;;;;;;;;;;21.33;55.69;101321.47;5139520;27;19975;-35
2022/10/30 10:07:14;;;;;;;;;;;;;;;21.32;55.96;101313.41;5140299;27;19959;-34
2022/10/30 10:09:40;;;;;;;;;;;;;;;21.32;55.93;101317.00;5140950;27;20370;-35
2022/10/30 10:12:08;;;;;;;;;;;;;;;21.33;55.96;101317.84;5139250;27;19985;-35
2022/10/30 10:14:35;;;;;;;;;;;;;;;21.33;55.93;101315.91;5121313;27;20104;-37
2022/10/30 10:17:01;;;;;;;;;;;;;;;21.33;55.86;101315.06;5124520;27;20236;-38
2022/10/30 10:19:35;;;;;;;;;;;;;;;21.33;55.98;101317.84;5138525;27;20018;-38
2022/10/30 10:22:01;;;;;;;;;;;;;;;21.33;55.90;101315.06;5142064;27;19960;-37
2022/10/30 10:24:28;;;;;;;;;;;;;;;21.33;55.88;101315.91;5139729;27;20015;-37
2022/10/30 10:26:55;;;;;;;;;;;;;;;21.34;55.99;101316.75;5121794;27;19980;-37
2022/10/30 10:29:41;;;;;;;;;;;;;;;21.33;55.87;101312.28;5119872;27;20349;-37
2022/10/30 10:32:15;;;;;;;;;;;;;;;21.33;55.96;101307.59;5125568;27;19993;-37
2022/10/30 10:34:44;;;;;;;;;;;;;;;21.34;55.88;101311.19;5140547;27;19994;-37
2022/10/30 10:37:14;;;;;;;;;;;;;;;21.33;55.81;101310.38;5131396;28;20008;-37
2022/10/30 10:39:52;;;;;;;;;;;;;;;21.32;55.90;101316.19;5129939;28;19962;-37
2022/10/30 10:42:37;;;;;;;;;;;;;;;21.33;55.87;101306.75;5138715;27;20026;-37
2022/10/30 10:45:23;;;;;;;;;;;;;;;21.33;55.87;101309.53;5121450;27;19966;-38
2022/10/30 10:47:56;;;;;;;;;;;;;;;21.33;55.89;101306.75;5118822;27;20335;-37
2022/10/30 10:50:24;;;;;;;;;;;;;;;21.34;55.86;101305.66;5141084;27;19923;-37
2022/10/30 10:52:53;;;;;;;;;;;;;;;21.33;55.91;101303.97;5138596;27;19981;-37
2022/10/30 10:55:20;;;;;;;;;;;;;;;21.33;55.92;101307.59;5124164;27;20007;-37
2022/10/30 10:57:46;;;;;;;;;;;;;;;21.33;55.88;101310.38;5121356;27;19980;-38
2022/10/30 11:00:14;;;;;;;;;;;;;;;21.34;55.90;101305.66;5123238;27;20026;-37
2022/10/30 11:02:42;;;;;;;;;;;;;;;21.33;56.15;101304.84;5121380;27;19995;-37
2022/10/30 11:05:15;;;;;;;;;;;;;;;21.33;55.91;101306.75;5144101;27;19930;-37
2022/10/30 11:07:48;;;;;;;;;;;;;;;21.33;55.86;101301.22;5121827;27;19963;-37
2022/10/30 11:10:15;;;;;;;;;;;;;;;21.34;55.90;101305.66;5137434;27;19970;-37
2022/10/30 11:12:41;;;;;;;;;;;;;;;21.32;55.78;101299.56;5123771;27;19969;-37
2022/10/30 11:15:26;;;;;;;;;;;;;;;21.33;55.79;101301.22;5137690;27;20006;-37
2022/10/30 11:17:54;;;;;;;;;;;;;;;21.32;55.89;101292.06;5125820;27;20013;-37
2022/10/30 11:20:22;;;;;;;;;;;;;;;21.33;55.86;101288.22;5141529;27;19923;-37
2022/10/30 11:22:49;;;;;;;;;;;;;;;21.33;55.84;101288.22;5115940;27;20390;-37
2022/10/30 11:25:17;;;;;;;;;;;;;;;21.33;55.95;101292.91;5124573;27;19962;-37
2022/10/30 11:27:43;;;;;;;;;;;;;;;21.33;56.00;101284.59;5120168;27;20062;-37
2022/10/30 11:30:16;;;;;;;;;;;;;;;21.33;55.96;101279.03;5119511;27;19973;-37
2022/10/30 11:32:42;;;;;;;;;;;;;;;21.33;55.85;101281.81;5119427;27;19959;-38
2022/10/30 11:37:43;;;;;;;;;;;;;;;21.33;55.83;101279.03;5162574;27;19926;-35
2022/10/30 11:42:45;;;;;;;;;;;;;;;21.34;55.96;101275.19;5166106;27;19926;-35
2022/10/30 11:45:15;;;;;;;;;;;;;;;21.32;55.94;101269.09;5161129;27;19930;-35
2022/10/30 11:47:41;;;;;;;;;;;;;;;21.32;55.85;101267.13;5145860;27;20349;-35
2022/10/30 11:50:07;;;;;;;;;;;;;;;21.31;55.94;101273.78;5163552;27;20397;-35
2022/10/30 11:52:35;;;;;;;;;;;;;;;21.32;55.94;101264.38;5159867;27;19987;-35
2022/10/30 11:55:07;;;;;;;;;;;;;;;21.32;55.88;101266.31;5159898;27;20353;-35
2022/10/30 11:57:34;;;;;;;;;;;;;;;21.33;55.95;101267.97;5161795;27;20374;-35
2022/10/30 12:00:14;;;;;;;;;;;;;;;21.32;55.87;101269.91;5142655;27;20002;-35
2022/10/30 12:02:41;;;;;;;;;;;;;;;21.33;55.85;101267.97;5140562;27;19978;-36
2022/10/30 12:05:27;;;;;;;;;;;;;;;21.32;55.92;101272.69;5144120;27;19997;-35
2022/10/30 12:07:52;;;;;;;;;;;;;;;21.33;55.89;101274.38;5143673;27;19930;-35
2022/10/30 12:10:22;;;;;;;;;;;;;;;21.32;55.86;101267.13;5161617;27;19922;-35
2022/10/30 12:12:49;;;;;;;;;;;;;;;21.33;55.90;101268.81;5160301;27;20370;-35
2022/10/30 12:15:18;;;;;;;;;;;;;;;21.32;55.77;101272.69;5152286;27;20003;-35
2022/10/30 12:17:59;;;;;;;;;;;;;;;21.33;55.91;101276.28;5142647;27;19946;-35
2022/10/30 12:20:25;;;;;;;;;;;;;;;21.32;55.81;101272.69;5143874;27;20714;-35
2022/10/30 12:22:51;;;;;;;;;;;;;;;21.33;55.91;101273.50;5142962;27;19932;-35
2022/10/30 12:25:20;;;;;;;;;;;;;;;21.33;55.91;101268.81;5140428;27;19932;-35
2022/10/30 12:27:45;;;;;;;;;;;;;;;21.32;55.92;101275.44;5133593;27;20346;-35
2022/10/30 12:30:18;;;;;;;;;;;;;;;21.33;55.85;101266.06;5144459;27;19923;-34
2022/10/30 12:32:46;;;;;;;;;;;;;;;21.33;56.00;101267.97;5141491;27;20298;-35
2022/10/30 12:35:26;;;;;;;;;;;;;;;21.33;56.02;101260.50;5138052;27;20014;-35
2022/10/30 12:37:52;;;;;;;;;;;;;;;21.33;55.83;101256.88;5135569;27;20004;-35
2022/10/30 12:40:19;;;;;;;;;;;;;;;21.32;55.90;101258.81;5139734;27;19983;-35
2022/10/30 12:42:50;;;;;;;;;;;;;;;21.32;55.92;101256.06;5137651;27;20014;-35